Rock Lake, North Dakota
Current Conditions -  °F | °C
As of 9:15 PM on Friday 21 Nov 2014 (Local Time) from K06D Reporting Station
Clear Clear  
Wind Chill: 24°   Ceiling: Unl
Heat Index: 32°   Visibility: 10mi
Dew Point: 32°   Wind: 9mph
Humidity: 100%   Direction: 250°WSW
Pressure: 29.58"   Gusts: NA
Location:  48.8584°N, 99.1311°W
Report Text: K06D 220315Z AUTO 25008KT 10SM CLR 00/00 A2958 RMK AO2
Loading
Personal Weather Stations






























Interactive Weather Map New forecast layout! Learn more

10-Day Weather Forecast

Advertisements
Track Severe Weather on mobile